Time;durP1;ratioP1;P1;durP2;ratioP2;P2;SDS_P1;SDS_P2;PMS_P1;PMS_P2;Temp;Humidity;BMP_temperature;BMP_pressure;BME280_temperature;BME280_humidity;BME280_pressure;Samples;Min_cycle;Max_cycle;Signal;HPM_P1;HPM_P2
2020/12/11 00:02:02;;;;;;;5.32;0.90;;;;;;;;;;4944032;29;20031;-58
2020/12/11 00:04:28;;;;;;;9.13;1.10;;;;;;;;;;4941739;29;20066;-58
2020/12/11 00:06:57;;;;;;;7.22;0.93;;;;;;;;;;4945255;29;20134;-58
2020/12/11 00:09:24;;;;;;;3.72;1.08;;;;;;;;;;4943599;29;20047;-57
2020/12/11 00:11:50;;;;;;;4.85;1.00;;;;;;;;;;4942359;29;20071;-58
2020/12/11 00:14:16;;;;;;;7.55;1.10;;;;;;;;;;4944282;29;20042;-57
2020/12/11 00:16:42;;;;;;;2.83;0.90;;;;;;;;;;4941885;29;20039;-57
2020/12/11 00:19:08;;;;;;;5.75;0.93;;;;;;;;;;4944560;29;20035;-58
2020/12/11 00:21:38;;;;;;;10.38;1.42;;;;;;;;;;4942986;29;20054;-59
2020/12/11 00:24:04;;;;;;;8.85;1.15;;;;;;;;;;4943537;29;20051;-58
2020/12/11 00:26:30;;;;;;;5.80;0.85;;;;;;;;;;4944131;28;20032;-57
2020/12/11 00:28:56;;;;;;;4.72;1.08;;;;;;;;;;4948329;29;20051;-59
2020/12/11 00:31:26;;;;;;;2.08;0.77;;;;;;;;;;4948237;29;20071;-57
2020/12/11 00:33:52;;;;;;;3.45;0.90;;;;;;;;;;4948963;29;20985;-60
2020/12/11 00:36:19;;;;;;;2.85;0.63;;;;;;;;;;4935922;29;20420;-57
2020/12/11 00:38:45;;;;;;;2.80;0.70;;;;;;;;;;4948944;29;20162;-58
2020/12/11 00:41:11;;;;;;;3.40;0.73;;;;;;;;;;4939760;28;20051;-59
2020/12/11 00:43:37;;;;;;;1.80;0.73;;;;;;;;;;4932962;29;20040;-59
2020/12/11 00:46:03;;;;;;;2.60;0.70;;;;;;;;;;4946589;29;20039;-54
2020/12/11 00:48:30;;;;;;;3.83;1.00;;;;;;;;;;4944900;29;20071;-58
2020/12/11 00:50:56;;;;;;;5.22;1.17;;;;;;;;;;4943306;29;20054;-58
2020/12/11 00:53:22;;;;;;;3.10;0.80;;;;;;;;;;4945766;29;20024;-60
2020/12/11 00:55:48;;;;;;;6.93;1.20;;;;;;;;;;4947034;29;20051;-55
2020/12/11 00:58:15;;;;;;;2.70;0.88;;;;;;;;;;4947419;29;20768;-58
2020/12/11 01:00:41;;;;;;;5.40;1.42;;;;;;;;;;4934530;29;20214;-59
2020/12/11 01:03:07;;;;;;;7.88;1.50;;;;;;;;;;4946155;29;20039;-58
2020/12/11 01:05:35;;;;;;;5.28;1.10;;;;;;;;;;4931400;29;20055;-57
2020/12/11 01:08:02;;;;;;;3.97;1.02;;;;;;;;;;4946791;29;20968;-57
2020/12/11 01:10:28;;;;;;;5.93;1.25;;;;;;;;;;4944259;29;20051;-57
2020/12/11 01:12:57;;;;;;;4.82;0.90;;;;;;;;;;4946480;29;20039;-57
2020/12/11 01:15:23;;;;;;;3.58;0.82;;;;;;;;;;4945339;29;20035;-58
2020/12/11 01:17:49;;;;;;;4.05;0.90;;;;;;;;;;4934219;29;20035;-58
2020/12/11 01:20:15;;;;;;;5.63;1.10;;;;;;;;;;4945510;29;20053;-58
2020/12/11 01:22:41;;;;;;;10.15;1.23;;;;;;;;;;4942630;29;20067;-57
2020/12/11 01:25:07;;;;;;;5.10;1.00;;;;;;;;;;4945207;29;20043;-57
2020/12/11 01:27:33;;;;;;;5.70;1.10;;;;;;;;;;4945435;29;20047;-58
2020/12/11 01:29:59;;;;;;;4.13;1.08;;;;;;;;;;4944251;29;20047;-58
2020/12/11 01:32:25;;;;;;;3.08;1.05;;;;;;;;;;4926881;29;20238;-57
2020/12/11 01:34:52;;;;;;;4.95;1.00;;;;;;;;;;4946064;29;20043;-58
2020/12/11 01:37:18;;;;;;;10.30;1.63;;;;;;;;;;4933484;29;20035;-58
2020/12/11 01:39:44;;;;;;;6.20;1.33;;;;;;;;;;4944933;29;20043;-57
2020/12/11 01:42:11;;;;;;;6.95;1.55;;;;;;;;;;4945143;29;20768;-58
2020/12/11 01:44:37;;;;;;;3.58;0.88;;;;;;;;;;4946183;29;20536;-57
2020/12/11 01:47:03;;;;;;;6.47;1.23;;;;;;;;;;4946850;29;20039;-58
2020/12/11 01:49:29;;;;;;;5.65;1.17;;;;;;;;;;4944671;29;20888;-57
2020/12/11 01:51:56;;;;;;;9.00;1.20;;;;;;;;;;4945761;29;20064;-57
2020/12/11 01:54:21;;;;;;;5.90;1.45;;;;;;;;;;4945765;29;20059;-58
2020/12/11 01:57:03;;;;;;;12.05;1.60;;;;;;;;;;4947310;29;20039;-55
2020/12/11 01:59:35;;;;;;;11.07;1.65;;;;;;;;;;4944251;29;20129;-58
2020/12/11 02:02:03;;;;;;;9.15;1.33;;;;;;;;;;4946512;29;20043;-57
2020/12/11 02:04:29;;;;;;;7.32;1.23;;;;;;;;;;4946079;29;20051;-57
2020/12/11 02:06:55;;;;;;;6.82;1.40;;;;;;;;;;4944381;29;20036;-58
2020/12/11 02:09:21;;;;;;;11.43;2.08;;;;;;;;;;4944215;29;20047;-57
2020/12/11 02:11:49;;;;;;;6.43;1.33;;;;;;;;;;4949820;29;20066;-59
2020/12/11 02:14:15;;;;;;;4.82;1.10;;;;;;;;;;4945090;29;20035;-59
2020/12/11 02:16:41;;;;;;;4.72;1.35;;;;;;;;;;4926352;29;20049;-57
2020/12/11 02:19:07;;;;;;;8.23;1.90;;;;;;;;;;4947075;29;20138;-57
2020/12/11 02:21:33;;;;;;;4.78;1.35;;;;;;;;;;4944344;29;20065;-58
2020/12/11 02:24:00;;;;;;;4.53;1.73;;;;;;;;;;4946475;29;20067;-59
2020/12/11 02:26:25;;;;;;;7.55;1.48;;;;;;;;;;4917439;29;20038;-58
2020/12/11 02:28:51;;;;;;;6.45;1.40;;;;;;;;;;4944838;29;20047;-58
2020/12/11 02:31:17;;;;;;;8.23;1.50;;;;;;;;;;4946592;29;20183;-58
2020/12/11 02:33:44;;;;;;;3.50;1.30;;;;;;;;;;4946305;29;20039;-56
2020/12/11 02:36:09;;;;;;;5.55;1.30;;;;;;;;;;4945176;29;20070;-58
2020/12/11 02:38:35;;;;;;;4.07;1.27;;;;;;;;;;4945585;29;20035;-58
2020/12/11 02:41:02;;;;;;;4.30;1.23;;;;;;;;;;4931764;29;20066;-58
2020/12/11 02:43:29;;;;;;;8.90;1.63;;;;;;;;;;4943751;29;20054;-58
2020/12/11 02:45:55;;;;;;;6.50;1.55;;;;;;;;;;4945458;29;20036;-58
2020/12/11 02:48:21;;;;;;;10.15;1.67;;;;;;;;;;4945771;28;20079;-58
2020/12/11 02:50:49;;;;;;;4.57;1.27;;;;;;;;;;4945274;29;20148;-57
2020/12/11 02:53:15;;;;;;;8.95;1.48;;;;;;;;;;4945202;29;20028;-56
2020/12/11 02:55:40;;;;;;;9.38;1.75;;;;;;;;;;4943166;29;20585;-57
2020/12/11 02:58:06;;;;;;;5.30;1.40;;;;;;;;;;4944721;29;20043;-58
2020/12/11 03:00:32;;;;;;;9.95;1.45;;;;;;;;;;4930896;29;20110;-58
2020/12/11 03:02:58;;;;;;;5.93;1.65;;;;;;;;;;4947735;29;20040;-57
2020/12/11 03:05:24;;;;;;;4.75;1.33;;;;;;;;;;4944947;29;20428;-57
2020/12/11 03:07:50;;;;;;;6.50;1.45;;;;;;;;;;4945672;29;20055;-57
2020/12/11 03:10:16;;;;;;;7.40;1.70;;;;;;;;;;4943561;29;20154;-60
2020/12/11 03:12:42;;;;;;;5.60;1.40;;;;;;;;;;4944733;29;20035;-58
2020/12/11 03:15:08;;;;;;;6.75;1.75;;;;;;;;;;4945326;29;20075;-59
2020/12/11 03:17:34;;;;;;;6.47;1.90;;;;;;;;;;4943727;29;20044;-59
2020/12/11 03:20:00;;;;;;;7.55;1.48;;;;;;;;;;4944664;29;20050;-58
2020/12/11 03:22:26;;;;;;;6.70;1.83;;;;;;;;;;4943855;29;20046;-59
2020/12/11 03:24:52;;;;;;;5.00;1.35;;;;;;;;;;4928597;29;20043;-57
2020/12/11 03:27:18;;;;;;;8.27;1.80;;;;;;;;;;4945906;29;20071;-59
2020/12/11 03:29:43;;;;;;;5.15;1.80;;;;;;;;;;4945833;29;20051;-60
2020/12/11 03:32:09;;;;;;;5.43;1.80;;;;;;;;;;4943462;29;20040;-58
2020/12/11 03:34:35;;;;;;;9.15;1.73;;;;;;;;;;4944023;29;20067;-59
2020/12/11 03:37:01;;;;;;;7.55;1.63;;;;;;;;;;4941120;29;20039;-59
2020/12/11 03:39:27;;;;;;;6.70;1.80;;;;;;;;;;4940249;29;20067;-59
2020/12/11 03:41:54;;;;;;;10.77;1.75;;;;;;;;;;4928531;29;20043;-58
2020/12/11 03:44:20;;;;;;;4.82;1.58;;;;;;;;;;4943370;29;20038;-59
2020/12/11 03:46:46;;;;;;;6.88;2.10;;;;;;;;;;4927377;29;20055;-58
2020/12/11 03:49:12;;;;;;;9.63;1.98;;;;;;;;;;4948635;29;20074;-56
2020/12/11 03:51:38;;;;;;;5.07;1.70;;;;;;;;;;4944353;29;20058;-59
2020/12/11 03:54:05;;;;;;;5.70;2.05;;;;;;;;;;4944357;29;20040;-58
2020/12/11 03:56:30;;;;;;;6.57;2.25;;;;;;;;;;4943885;29;20075;-58
2020/12/11 03:58:56;;;;;;;6.15;1.83;;;;;;;;;;4941786;29;20046;-59
2020/12/11 04:01:22;;;;;;;5.72;1.50;;;;;;;;;;4946603;29;20031;-59
2020/12/11 04:03:49;;;;;;;7.65;1.88;;;;;;;;;;4947456;29;20102;-58
2020/12/11 04:06:15;;;;;;;5.95;1.88;;;;;;;;;;4947084;29;20047;-58
2020/12/11 04:08:42;;;;;;;8.73;1.90;;;;;;;;;;4945305;29;20042;-59
2020/12/11 04:11:09;;;;;;;4.25;1.60;;;;;;;;;;4932320;29;20058;-60
2020/12/11 04:13:35;;;;;;;5.45;1.73;;;;;;;;;;4947291;29;20103;-59
2020/12/11 04:16:02;;;;;;;7.10;1.70;;;;;;;;;;4944175;28;20040;-59
2020/12/11 04:18:28;;;;;;;5.03;1.60;;;;;;;;;;4929726;29;20047;-59
2020/12/11 04:20:56;;;;;;;5.28;1.50;;;;;;;;;;4947285;29;20584;-57
2020/12/11 04:23:22;;;;;;;5.97;1.67;;;;;;;;;;4945321;29;20046;-58
2020/12/11 04:25:48;;;;;;;8.68;1.67;;;;;;;;;;4932488;29;20039;-56
2020/12/11 04:28:14;;;;;;;5.82;1.80;;;;;;;;;;4946079;29;20043;-54
2020/12/11 04:30:40;;;;;;;5.15;1.52;;;;;;;;;;4945625;29;20063;-55
2020/12/11 04:33:06;;;;;;;6.00;1.35;;;;;;;;;;4947506;29;20088;-58
2020/12/11 04:35:32;;;;;;;5.55;2.05;;;;;;;;;;4947316;29;20047;-55
2020/12/11 04:37:58;;;;;;;6.50;1.42;;;;;;;;;;4946705;29;20170;-57
2020/12/11 04:40:24;;;;;;;7.28;1.50;;;;;;;;;;4947134;29;20051;-59
2020/12/11 04:42:51;;;;;;;6.13;1.73;;;;;;;;;;4946533;29;20043;-58
2020/12/11 04:45:17;;;;;;;3.78;1.30;;;;;;;;;;4948883;29;20131;-58
2020/12/11 04:47:43;;;;;;;4.75;1.13;;;;;;;;;;4946746;29;20693;-59
2020/12/11 04:50:16;;;;;;;6.90;1.17;;;;;;;;;;4946602;29;20083;-59
2020/12/11 04:52:43;;;;;;;3.08;1.13;;;;;;;;;;4945370;29;20534;-57
2020/12/11 04:55:16;;;;;;;3.15;1.10;;;;;;;;;;4945876;29;20823;-58
2020/12/11 04:57:47;;;;;;;8.00;1.50;;;;;;;;;;4947048;29;20557;-59
2020/12/11 05:00:13;;;;;;;4.20;1.25;;;;;;;;;;4946649;29;20091;-58
2020/12/11 05:02:40;;;;;;;3.80;1.08;;;;;;;;;;4946010;29;20046;-57
2020/12/11 05:05:06;;;;;;;7.68;1.42;;;;;;;;;;4946864;29;20047;-57
2020/12/11 05:07:33;;;;;;;5.43;1.33;;;;;;;;;;4945287;29;20043;-58
2020/12/11 05:09:58;;;;;;;6.72;1.33;;;;;;;;;;4946010;29;20055;-56
2020/12/11 05:12:25;;;;;;;5.47;1.55;;;;;;;;;;4944126;28;23282;-59
2020/12/11 05:14:57;;;;;;;5.43;1.48;;;;;;;;;;4929307;29;20508;-58
2020/12/11 05:17:42;;;;;;;3.40;1.10;;;;;;;;;;4945332;29;20069;-58
2020/12/11 05:20:10;;;;;;;4.97;1.50;;;;;;;;;;4945589;29;20044;-59
2020/12/11 05:22:37;;;;;;;4.25;1.25;;;;;;;;;;4944962;29;20085;-57
2020/12/11 05:25:05;;;;;;;7.85;1.65;;;;;;;;;;4944696;29;20042;-58
2020/12/11 05:27:31;;;;;;;3.55;1.30;;;;;;;;;;4947463;29;20043;-58
2020/12/11 05:29:58;;;;;;;6.30;1.38;;;;;;;;;;4944495;29;20066;-58
2020/12/11 05:32:37;;;;;;;3.63;1.30;;;;;;;;;;4933950;29;20103;-57
2020/12/11 05:35:04;;;;;;;6.07;1.42;;;;;;;;;;4946573;29;20058;-57
2020/12/11 05:37:30;;;;;;;6.90;1.50;;;;;;;;;;4944655;29;20055;-55
2020/12/11 05:39:56;;;;;;;5.68;1.50;;;;;;;;;;4942609;29;20043;-58
2020/12/11 05:42:22;;;;;;;4.03;1.30;;;;;;;;;;4945669;29;20036;-58
2020/12/11 05:44:48;;;;;;;5.45;1.58;;;;;;;;;;4944687;29;20058;-56
2020/12/11 05:47:21;;;;;;;5.45;1.42;;;;;;;;;;4946450;29;20050;-58
2020/12/11 05:49:47;;;;;;;3.85;1.45;;;;;;;;;;4946540;29;20051;-58
2020/12/11 05:52:14;;;;;;;6.47;1.77;;;;;;;;;;4946833;29;20031;-58
2020/12/11 05:54:41;;;;;;;6.95;1.40;;;;;;;;;;4945590;29;20044;-58
2020/12/11 05:57:07;;;;;;;6.65;1.65;;;;;;;;;;4945869;29;20043;-58
2020/12/11 05:59:34;;;;;;;3.72;1.73;;;;;;;;;;4944695;29;20049;-58
2020/12/11 06:02:00;;;;;;;5.70;1.73;;;;;;;;;;4946541;29;20074;-58
2020/12/11 06:04:26;;;;;;;6.10;1.42;;;;;;;;;;4943568;29;20052;-57
2020/12/11 06:06:57;;;;;;;4.65;1.70;;;;;;;;;;4947066;29;20047;-58
2020/12/11 06:09:33;;;;;;;4.75;1.25;;;;;;;;;;4945141;29;20071;-58
2020/12/11 06:11:59;;;;;;;5.88;1.70;;;;;;;;;;4943989;29;20123;-59
2020/12/11 06:14:35;;;;;;;5.43;1.65;;;;;;;;;;4943731;29;20462;-58
2020/12/11 06:17:01;;;;;;;9.18;1.85;;;;;;;;;;4945605;29;20069;-59
2020/12/11 06:19:28;;;;;;;7.15;1.70;;;;;;;;;;4943760;29;20102;-58
2020/12/11 06:21:54;;;;;;;4.95;1.25;;;;;;;;;;4945621;29;20035;-56
2020/12/11 06:24:30;;;;;;;8.30;1.60;;;;;;;;;;4945290;29;20225;-58
2020/12/11 06:26:57;;;;;;;7.90;1.73;;;;;;;;;;4933520;29;20071;-58
2020/12/11 06:29:27;;;;;;;10.05;1.80;;;;;;;;;;4943395;29;20174;-58
2020/12/11 06:31:53;;;;;;;5.50;1.80;;;;;;;;;;4945130;29;20940;-57
2020/12/11 06:34:20;;;;;;;7.20;1.60;;;;;;;;;;4946711;29;20138;-58
2020/12/11 06:36:47;;;;;;;4.75;1.50;;;;;;;;;;4942840;29;20123;-58
2020/12/11 06:39:32;;;;;;;8.25;1.65;;;;;;;;;;4944062;29;20039;-58
2020/12/11 06:41:58;;;;;;;5.22;1.60;;;;;;;;;;4942379;29;20059;-59
2020/12/11 06:44:24;;;;;;;5.22;1.55;;;;;;;;;;4944924;29;20039;-58
2020/12/11 06:47:09;;;;;;;11.88;1.88;;;;;;;;;;4945052;29;20396;-58
2020/12/11 06:49:36;;;;;;;4.28;1.50;;;;;;;;;;4943036;29;20051;-58
2020/12/11 06:52:02;;;;;;;6.65;1.60;;;;;;;;;;4943820;29;20036;-58
2020/12/11 06:54:28;;;;;;;5.45;1.67;;;;;;;;;;4942566;29;20036;-58
2020/12/11 06:56:55;;;;;;;9.30;1.70;;;;;;;;;;4943123;29;20115;-57
2020/12/11 06:59:22;;;;;;;4.22;1.83;;;;;;;;;;4943323;29;20408;-57
2020/12/11 07:01:52;;;;;;;11.35;1.63;;;;;;;;;;4943197;29;22442;-57
2020/12/11 07:04:18;;;;;;;7.50;1.55;;;;;;;;;;4944069;29;20123;-57
2020/12/11 07:06:51;;;;;;;4.10;1.50;;;;;;;;;;4943348;29;20046;-58
2020/12/11 07:09:17;;;;;;;5.32;1.67;;;;;;;;;;4944057;29;20065;-58
2020/12/11 07:11:43;;;;;;;6.78;1.90;;;;;;;;;;4932392;29;20080;-57
2020/12/11 07:14:09;;;;;;;3.72;1.45;;;;;;;;;;4943385;29;20400;-58
2020/12/11 07:16:53;;;;;;;4.43;1.30;;;;;;;;;;4943807;29;20131;-58
2020/12/11 07:19:19;;;;;;;;;;;;;;;;;;4925908;29;20043;-58
2020/12/11 07:21:46;;;;;;;5.93;1.70;;;;;;;;;;4945157;29;19919;-56
2020/12/11 07:24:12;;;;;;;5.82;1.67;;;;;;;;;;4943707;29;20374;-58
2020/12/11 07:26:38;;;;;;;5.97;1.77;;;;;;;;;;4926047;29;20103;-58
2020/12/11 07:29:09;;;;;;;3.72;1.70;;;;;;;;;;4944668;29;20058;-57
2020/12/11 07:31:39;;;;;;;4.32;1.77;;;;;;;;;;4944030;29;20043;-58
2020/12/11 07:34:15;;;;;;;4.88;1.92;;;;;;;;;;4943441;29;20071;-58
2020/12/11 07:36:41;;;;;;;9.32;2.20;;;;;;;;;;4945694;29;20043;-58
2020/12/11 07:39:16;;;;;;;8.25;1.75;;;;;;;;;;4947880;29;20039;-59
2020/12/11 07:41:44;;;;;;;4.57;1.58;;;;;;;;;;4947610;29;20512;-59
2020/12/11 07:44:10;;;;;;;4.18;1.60;;;;;;;;;;4948774;29;20067;-58
2020/12/11 07:46:42;;;;;;;5.90;1.73;;;;;;;;;;4947902;29;20048;-57
2020/12/11 07:49:08;;;;;;;6.00;2.05;;;;;;;;;;4947958;29;20071;-59
2020/12/11 07:51:43;;;;;;;6.43;1.98;;;;;;;;;;4947661;29;20047;-59
2020/12/11 07:54:09;;;;;;;4.85;1.70;;;;;;;;;;4948402;29;20205;-59
2020/12/11 07:56:35;;;;;;;8.98;1.98;;;;;;;;;;4949566;29;20063;-58
2020/12/11 07:59:13;;;;;;;7.47;1.90;;;;;;;;;;4947388;29;20042;-59
2020/12/11 08:01:52;;;;;;;9.60;1.80;;;;;;;;;;4947645;29;20047;-59
2020/12/11 08:04:18;;;;;;;5.45;1.85;;;;;;;;;;4946419;29;20066;-58
2020/12/11 08:06:59;;;;;;;7.60;2.58;;;;;;;;;;4946367;29;20150;-58
2020/12/11 08:09:31;;;;;;;7.00;1.80;;;;;;;;;;4946412;29;20051;-57
2020/12/11 08:12:29;;;;;;;4.88;1.70;;;;;;;;;;4948592;29;20050;-55
2020/12/11 08:14:55;;;;;;;5.93;1.90;;;;;;;;;;4889648;29;20540;-58
2020/12/11 08:17:22;;;;;;;4.70;1.90;;;;;;;;;;4947405;29;20442;-58
2020/12/11 08:19:56;;;;;;;6.57;1.65;;;;;;;;;;4946350;29;20050;-58
2020/12/11 08:22:22;;;;;;;7.20;2.10;;;;;;;;;;4948915;29;20035;-58
2020/12/11 08:24:48;;;;;;;7.85;2.08;;;;;;;;;;4947577;29;20044;-58
2020/12/11 08:27:20;;;;;;;5.43;2.05;;;;;;;;;;4947656;29;20129;-59
2020/12/11 08:30:03;;;;;;;9.07;2.15;;;;;;;;;;4946345;29;20067;-59
2020/12/11 08:32:29;;;;;;;7.23;1.90;;;;;;;;;;4948094;29;20130;-58
2020/12/11 08:34:55;;;;;;;7.70;2.22;;;;;;;;;;4947946;29;20278;-60
2020/12/11 08:37:21;;;;;;;8.02;2.03;;;;;;;;;;4946758;29;20054;-60
2020/12/11 08:39:47;;;;;;;7.40;2.40;;;;;;;;;;4947176;29;20091;-59
2020/12/11 08:42:21;;;;;;;6.88;2.75;;;;;;;;;;4948805;29;20040;-59
2020/12/11 08:50:08;;;;;;;13.80;3.50;;;;;;;;;;4948009;29;20055;-58
2020/12/11 08:52:34;;;;;;;10.25;3.70;;;;;;;;;;4945237;29;20036;-59
2020/12/11 08:55:00;;;;;;;8.95;3.75;;;;;;;;;;4946319;29;20219;-59
2020/12/11 08:57:30;;;;;;;7.80;3.88;;;;;;;;;;4944811;29;20446;-59
2020/12/11 08:59:56;;;;;;;11.88;4.18;;;;;;;;;;4946413;29;20050;-59
2020/12/11 09:02:21;;;;;;;11.43;5.72;;;;;;;;;;4945895;29;20047;-60
2020/12/11 09:04:47;;;;;;;8.02;4.47;;;;;;;;;;4947467;29;20055;-59
2020/12/11 09:07:13;;;;;;;12.98;5.50;;;;;;;;;;4945228;29;20047;-59
2020/12/11 09:09:39;;;;;;;13.05;6.95;;;;;;;;;;4946213;29;20059;-59
2020/12/11 09:12:05;;;;;;;18.85;8.07;;;;;;;;;;4947305;29;20059;-56
2020/12/11 09:14:31;;;;;;;13.93;7.15;;;;;;;;;;4945113;29;20047;-57
2020/12/11 09:16:57;;;;;;;13.50;6.57;;;;;;;;;;4944581;29;20055;-58
2020/12/11 09:19:23;;;;;;;13.52;7.22;;;;;;;;;;4945638;29;20111;-58
2020/12/11 09:21:49;;;;;;;14.85;8.35;;;;;;;;;;4947410;28;20040;-58
2020/12/11 09:24:15;;;;;;;18.52;7.75;;;;;;;;;;4945314;29;20031;-58
2020/12/11 09:26:40;;;;;;;14.80;7.97;;;;;;;;;;4944769;29;20110;-58
2020/12/11 09:29:15;;;;;;;17.35;8.13;;;;;;;;;;4946928;29;20054;-57
2020/12/11 09:31:45;;;;;;;18.65;8.07;;;;;;;;;;4945931;29;20055;-57
2020/12/11 09:34:11;;;;;;;14.90;7.72;;;;;;;;;;4947293;29;20047;-58
2020/12/11 09:36:41;;;;;;;16.08;8.73;;;;;;;;;;4944920;29;20048;-59
2020/12/11 09:39:07;;;;;;;17.95;9.07;;;;;;;;;;4944692;29;20161;-58
2020/12/11 09:41:36;;;;;;;18.48;9.43;;;;;;;;;;4944807;29;20047;-58
2020/12/11 09:47:40;;;;;;;28.95;12.73;;;;;;;;;;4945940;29;20073;-58
2020/12/11 09:49:49;;;;;;;24.00;13.13;;;;;;;;;;4932593;29;20074;-59
2020/12/11 09:54:59;;;;;;;26.33;13.90;;;;;;;;;;4946502;29;20057;-57
2020/12/11 09:57:25;;;;;;;26.48;14.50;;;;;;;;;;4935100;28;20063;-58
2020/12/11 09:59:54;;;;;;;26.58;13.75;;;;;;;;;;4944914;29;20047;-58
2020/12/11 10:04:55;;;;;;;24.70;13.32;;;;;;;;;;4945355;29;20055;-57
2020/12/11 10:07:20;;;;;;;24.10;13.02;;;;;;;;;;4945472;29;20046;-58
2020/12/11 10:09:46;;;;;;;25.17;12.05;;;;;;;;;;4944139;29;20051;-58
2020/12/11 10:12:12;;;;;;;24.67;13.13;;;;;;;;;;4931177;29;20065;-58
2020/12/11 10:14:41;;;;;;;25.95;13.32;;;;;;;;;;4944416;29;20555;-58
2020/12/11 10:17:09;;;;;;;29.08;14.52;;;;;;;;;;4944070;29;20074;-58
2020/12/11 10:19:35;;;;;;;25.55;13.93;;;;;;;;;;4943793;29;20040;-58
2020/12/11 10:22:01;;;;;;;28.52;14.30;;;;;;;;;;4946015;29;20079;-57
2020/12/11 10:24:27;;;;;;;33.28;17.15;;;;;;;;;;4941879;29;20069;-58
2020/12/11 10:26:53;;;;;;;35.38;18.20;;;;;;;;;;4943234;29;21009;-57
2020/12/11 10:29:19;;;;;;;33.50;17.30;;;;;;;;;;4941901;29;20047;-57
2020/12/11 10:31:45;;;;;;;39.60;19.50;;;;;;;;;;4944756;29;20039;-55
2020/12/11 10:34:15;;;;;;;45.30;20.55;;;;;;;;;;4945719;29;20069;-57
2020/12/11 10:36:41;;;;;;;42.50;19.48;;;;;;;;;;4930799;29;20677;-58
2020/12/11 10:39:08;;;;;;;34.20;17.80;;;;;;;;;;4943621;29;20378;-58
2020/12/11 10:41:34;;;;;;;39.83;19.02;;;;;;;;;;4943084;29;20563;-57
2020/12/11 10:44:00;;;;;;;40.88;20.25;;;;;;;;;;4928428;29;20050;-58
2020/12/11 10:46:27;;;;;;;47.30;21.35;;;;;;;;;;4943400;29;20050;-57
2020/12/11 10:48:53;;;;;;;48.90;23.95;;;;;;;;;;4935736;29;20050;-60
2020/12/11 10:51:19;;;;;;;42.70;21.75;;;;;;;;;;4944432;29;20043;-59
2020/12/11 10:53:46;;;;;;;45.70;21.40;;;;;;;;;;4927190;29;20071;-59
2020/12/11 10:56:12;;;;;;;56.25;24.85;;;;;;;;;;4945186;29;20063;-59
2020/12/11 10:58:38;;;;;;;53.17;24.95;;;;;;;;;;4943543;29;20040;-57
2020/12/11 11:01:13;;;;;;;54.90;25.92;;;;;;;;;;4945305;29;20043;-58
2020/12/11 11:03:39;;;;;;;46.55;22.92;;;;;;;;;;4943503;29;20035;-56
2020/12/11 11:11:21;;;;;;;52.38;24.52;;;;;;;;;;4943968;29;20059;-56
2020/12/11 11:22:38;;;;;;;39.55;19.15;;;;;;;;;;4943821;29;20098;-59
2020/12/11 11:25:38;;;;;;;38.60;18.67;;;;;;;;;;4944625;29;20181;-58
2020/12/11 11:28:03;;;;;;;34.05;17.73;;;;;;;;;;4927814;29;20101;-58
2020/12/11 11:30:29;;;;;;;55.00;26.58;;;;;;;;;;4942029;29;20062;-58
2020/12/11 11:32:55;;;;;;;60.25;27.23;;;;;;;;;;4942944;29;20091;-58
2020/12/11 11:35:21;;;;;;;62.13;29.48;;;;;;;;;;4943902;29;20476;-58
2020/12/11 11:37:47;;;;;;;72.65;34.05;;;;;;;;;;4944910;29;20051;-58
2020/12/11 11:40:13;;;;;;;64.53;31.10;;;;;;;;;;4943920;29;20044;-55
2020/12/11 11:42:40;;;;;;;67.47;32.55;;;;;;;;;;4942469;29;20067;-58
2020/12/11 11:45:07;;;;;;;61.83;31.05;;;;;;;;;;4944835;29;20165;-58
2020/12/11 11:47:36;;;;;;;59.97;26.20;;;;;;;;;;4944417;29;20059;-58
2020/12/11 11:50:24;;;;;;;63.15;30.35;;;;;;;;;;4934770;29;20070;-59
2020/12/11 11:52:58;;;;;;;54.28;26.73;;;;;;;;;;4943143;29;20035;-59
2020/12/11 11:55:24;;;;;;;63.35;29.60;;;;;;;;;;4941819;29;20047;-58
2020/12/11 11:57:50;;;;;;;61.70;27.80;;;;;;;;;;4943288;29;20058;-59
2020/12/11 12:00:16;;;;;;;59.90;27.58;;;;;;;;;;4943059;29;20051;-59
2020/12/11 12:02:42;;;;;;;53.33;26.10;;;;;;;;;;4941211;29;20043;-58
2020/12/11 12:05:10;;;;;;;56.10;27.40;;;;;;;;;;4944232;29;20048;-58
2020/12/11 12:07:36;;;;;;;62.55;28.30;;;;;;;;;;4940591;29;20047;-58
2020/12/11 12:10:06;;;;;;;74.72;34.25;;;;;;;;;;4927042;29;20058;-58
2020/12/11 12:12:37;;;;;;;70.10;31.60;;;;;;;;;;4941512;29;20043;-58
2020/12/11 12:15:04;;;;;;;65.93;32.05;;;;;;;;;;4944656;29;20655;-59
2020/12/11 12:17:34;;;;;;;63.03;30.05;;;;;;;;;;4943777;29;20035;-58
2020/12/11 12:20:06;;;;;;;64.30;31.13;;;;;;;;;;4944654;29;20039;-59
2020/12/11 12:30:13;;;;;;;63.58;32.90;;;;;;;;;;4948018;29;20043;-58
2020/12/11 12:33:06;;;;;;;58.70;30.50;;;;;;;;;;4945782;29;20047;-58
2020/12/11 12:35:42;;;;;;;53.08;28.45;;;;;;;;;;4947492;29;20062;-58
2020/12/11 12:38:14;;;;;;;56.92;29.23;;;;;;;;;;4948864;29;20101;-58
2020/12/11 12:42:19;;;;;;;59.88;31.80;;;;;;;;;;4945843;29;20051;-59
2020/12/11 12:43:32;;;;;;;51.88;28.23;;;;;;;;;;4946499;29;20054;-59
2020/12/11 12:45:58;;;;;;;48.28;25.90;;;;;;;;;;4949305;29;20202;-58
2020/12/11 12:48:23;;;;;;;57.92;31.35;;;;;;;;;;4945601;29;20944;-58
2020/12/11 12:50:49;;;;;;;65.65;31.00;;;;;;;;;;4948550;29;20071;-58
2020/12/11 12:53:15;;;;;;;53.63;27.02;;;;;;;;;;4945547;29;20074;-58
2020/12/11 12:56:31;;;;;;;72.43;29.75;;;;;;;;;;4945030;29;20042;-58
2020/12/11 12:58:30;;;;;;;70.25;27.33;;;;;;;;;;4945025;29;20047;-57
2020/12/11 13:01:45;;;;;;;67.70;27.80;;;;;;;;;;4948374;29;20679;-57
2020/12/11 13:06:29;;;;;;;73.97;29.15;;;;;;;;;;4947476;29;20083;-57
2020/12/11 13:08:54;;;;;;;75.75;28.05;;;;;;;;;;4947621;29;20035;-58
2020/12/11 13:11:20;;;;;;;71.75;26.58;;;;;;;;;;4945496;29;20059;-58
2020/12/11 13:13:46;;;;;;;78.40;28.70;;;;;;;;;;4949391;29;20039;-58
2020/12/11 13:16:12;;;;;;;92.82;26.58;;;;;;;;;;4947296;29;20047;-57
2020/12/11 13:18:38;;;;;;;89.95;26.90;;;;;;;;;;4943338;29;20136;-57
2020/12/11 13:21:07;;;;;;;87.40;28.83;;;;;;;;;;4944593;29;20046;-57
2020/12/11 13:26:41;;;;;;;86.97;29.02;;;;;;;;;;4943503;29;20141;-57
2020/12/11 13:29:08;;;;;;;94.90;27.77;;;;;;;;;;4945470;29;20115;-56
2020/12/11 13:31:34;;;;;;;91.93;28.27;;;;;;;;;;4944892;29;20046;-58
2020/12/11 13:34:00;;;;;;;96.60;28.98;;;;;;;;;;4944080;28;20044;-58
2020/12/11 13:36:26;;;;;;;101.50;29.73;;;;;;;;;;4945853;29;20160;-57
2020/12/11 13:38:52;;;;;;;103.13;30.08;;;;;;;;;;4944930;29;20038;-58
2020/12/11 13:41:18;;;;;;;133.15;33.10;;;;;;;;;;4946676;29;20071;-59
2020/12/11 13:43:44;;;;;;;129.02;31.02;;;;;;;;;;4945140;29;20071;-57
2020/12/11 13:46:10;;;;;;;109.07;28.48;;;;;;;;;;4939343;29;20055;-57
2020/12/11 13:48:36;;;;;;;120.22;28.10;;;;;;;;;;4942207;29;20035;-57
2020/12/11 13:51:01;;;;;;;114.05;31.52;;;;;;;;;;4944778;29;20047;-56
2020/12/11 13:53:27;;;;;;;131.07;33.10;;;;;;;;;;4943798;29;20504;-57
2020/12/11 13:55:53;;;;;;;121.22;31.27;;;;;;;;;;4945081;29;20174;-58
2020/12/11 13:58:19;;;;;;;130.00;33.22;;;;;;;;;;4943239;29;20051;-57
2020/12/11 14:00:45;;;;;;;122.13;30.02;;;;;;;;;;4946622;29;20115;-58
2020/12/11 14:03:11;;;;;;;143.77;31.15;;;;;;;;;;4946500;29;20047;-56
2020/12/11 14:05:37;;;;;;;119.07;28.90;;;;;;;;;;4944498;29;20048;-59
2020/12/11 14:08:03;;;;;;;152.98;29.98;;;;;;;;;;4945680;29;20547;-57
2020/12/11 14:10:29;;;;;;;117.25;30.75;;;;;;;;;;4944720;29;20055;-55
2020/12/11 14:12:55;;;;;;;126.63;30.30;;;;;;;;;;4943216;29;20063;-58
2020/12/11 14:15:21;;;;;;;123.43;29.42;;;;;;;;;;4943626;29;20040;-58
2020/12/11 14:21:23;;;;;;;112.55;28.25;;;;;;;;;;4860090;29;20049;-58
2020/12/11 14:23:49;;;;;;;118.05;28.35;;;;;;;;;;4946203;29;20131;-58
2020/12/11 14:26:18;;;;;;;122.18;29.60;;;;;;;;;;4938226;29;20059;-58
2020/12/11 14:28:44;;;;;;;96.75;26.95;;;;;;;;;;4944680;29;20043;-58
2020/12/11 14:31:10;;;;;;;95.28;25.38;;;;;;;;;;4945481;29;20050;-59
2020/12/11 14:33:36;;;;;;;91.13;25.65;;;;;;;;;;4945769;29;20036;-56
2020/12/11 14:36:02;;;;;;;98.68;28.77;;;;;;;;;;4943983;29;20036;-58
2020/12/11 14:40:56;;;;;;;94.35;27.67;;;;;;;;;;4942825;29;20981;-58
2020/12/11 14:43:22;;;;;;;96.07;27.02;;;;;;;;;;4929017;29;20062;-58
2020/12/11 14:45:48;;;;;;;99.00;28.67;;;;;;;;;;4944540;29;20170;-58
2020/12/11 14:48:14;;;;;;;100.18;27.13;;;;;;;;;;4944174;29;20047;-57
2020/12/11 14:50:40;;;;;;;98.53;28.60;;;;;;;;;;4942829;29;20043;-57
2020/12/11 14:53:06;;;;;;;94.72;28.48;;;;;;;;;;4929338;29;20063;-58
2020/12/11 14:55:33;;;;;;;84.45;25.77;;;;;;;;;;4943076;29;20054;-57
2020/12/11 14:57:59;;;;;;;73.75;23.85;;;;;;;;;;4945048;29;20166;-56
2020/12/11 15:00:25;;;;;;;73.30;21.63;;;;;;;;;;4943011;29;20101;-57
2020/12/11 15:02:52;;;;;;;69.38;22.63;;;;;;;;;;4943063;29;20039;-57
2020/12/11 15:05:19;;;;;;;101.07;23.63;;;;;;;;;;4944108;29;20059;-55
2020/12/11 15:07:46;;;;;;;85.75;24.30;;;;;;;;;;4942860;29;20046;-57
2020/12/11 15:10:11;;;;;;;80.30;23.30;;;;;;;;;;4943321;29;20075;-58
2020/12/11 15:12:37;;;;;;;68.55;22.00;;;;;;;;;;4944183;29;20062;-58
2020/12/11 15:15:03;;;;;;;67.25;22.08;;;;;;;;;;4945468;29;20096;-56
2020/12/11 15:17:31;;;;;;;62.50;21.35;;;;;;;;;;4943242;29;20043;-55
2020/12/11 15:19:57;;;;;;;66.35;20.58;;;;;;;;;;4927283;29;20043;-58
2020/12/11 15:22:23;;;;;;;59.03;19.30;;;;;;;;;;4943193;29;20039;-57
2020/12/11 15:24:49;;;;;;;66.70;19.85;;;;;;;;;;4943438;28;20054;-57